Aeroporto :
LOGIN :

Iscrizione | Disclaimer

   EN    FR    IT 

 










Sommario :    VFR   VFR Marginale   IFR   IFR Intensivo   IFR Molto Intensivo
Visibilità : 
Base nubi : 
>= 8 km
>= 3000ft
5 / 8 km
1000 / 3000 ft
1500m / 5 km
500 / 1000 ft
800 / 1500m
200 / 500 ft
< 800m
< 200 ft
Simboli :   Temporali  Nebbia  Neve Forte  Precipitazioni Forti  Vento > 20 kt
SIGMETs :   Varie  Temporali  Ghiacco  Turbolenza  Onda orograficha  Ceneri Vulcaniche






- Altitudine del aeroporto : 48 ft
- Codice IATA : PSR


LIBP - Abruzzo Pescara

ULTIMO METAR :
  • 240920Z AUTO 23007KT 190V280 9999 FEW057/// BKN069/// 15/04 Q1006

METARs OBSOLETI :
  • 240850Z AUTO 24008KT 200V280 9999 BKN072/// 14/02 Q1006
  • 240820Z AUTO 22010KT 180V270 9999 BKN088/// 14/02 Q1006
  • 240750Z AUTO 20009KT 9999 SCT092/// 14/03 Q1006
  • 240720Z AUTO 22012KT 9999 BKN091/// 14/03 Q1006
  • 240650Z AUTO 20009KT 9999 FEW093/// BKN170/// 12/03 Q1006
  • 240620Z AUTO 20009KT 9999 FEW095/// BKN130/// 11/03 Q1006
  • 240550Z AUTO 21009KT 9999 BKN100/// 11/03 Q1006
  • 240520Z AUTO 22009KT 9999 OVC110/// 10/02 Q1006
  • 240450Z AUTO 20008KT 9999 FEW081/// BKN110/// 10/02 Q1006
  • 240420Z AUTO 25005KT 9999 BKN073/// OVC120/// 09/02 Q1006

TAF TAF LIBP
Valido dal 24 a 06 ore il 25 a 06 ore UTC


240500Z 2406/2506 24006KT 9999 BKN030
BECMG 2410/2412 03013KT
PROB40
TEMPO 2411/2416 4000 TSRA
BECMG 2417/2419 VRB05KT



MetMap, La meteo Aeronautica in un colpo d'occhio ! - Copyright ORBIFLY Dicembre 2007 - Disclaimer

ORBIFLY MET'MAP TEAM :

Programmazione e sviluppo : Alexandra Zaïnal
Concezione : Baudouin d'Aumeries
Supporto tecnico e logistico : Manuel Goepfert
Aiuto : Marc-Olivier Méhu
Aiuto per la traduzione : Arnaldo La Scala




FONTI E CREDITI :

   NOAA